Adelphia, New Jersey
Current Conditions -  °F | °C
As of 11:55 AM on Saturday 25 Oct 2014 (Local Time) from KBLM Reporting Station
Clear Clear  
Wind Chill: 17°   Ceiling: Unl
Heat Index: 17°   Visibility: 10mi
Dew Point:   Wind: 13mph
Humidity: 45%   Direction: 280°W
Pressure: 29.84"   Gusts: NA
Location:  40.22°N, 74.26°W
Report Text: KBLM 251555Z AUTO 28011KT 10SM CLR 17/05 A2984 RMK AO1
Loading
Personal Weather Stations






























Interactive Weather Map New forecast layout! Learn more

10-Day Weather Forecast

Advertisements
Track Severe Weather on mobile